createdAt,value
2023-02-02T00:00:50.759Z,0.22
2023-02-02T00:02:23.861Z,0.40
2023-02-02T00:03:58.862Z,0.20
2023-02-02T00:05:32.247Z,0.40
2023-02-02T00:07:07.383Z,0.38
2023-02-02T00:10:12.812Z,0.22
2023-02-02T00:11:48.539Z,0.30
2023-02-02T00:13:20.854Z,0.10
2023-02-02T00:14:53.968Z,0.30
2023-02-02T00:16:42.965Z,0.40
2023-02-02T00:18:16.087Z,0.10
2023-02-02T00:19:50.696Z,0.40
2023-02-02T00:21:23.565Z,0.40
2023-02-02T00:22:57.526Z,0.15
2023-02-02T00:24:30.757Z,0.28
2023-02-02T00:26:03.815Z,0.20
2023-02-02T00:27:37.127Z,0.30
2023-02-02T00:29:16.380Z,0.65
2023-02-02T00:30:49.563Z,0.30
2023-02-02T00:32:22.869Z,0.30
2023-02-02T00:33:56.257Z,0.40
2023-02-02T00:35:30.782Z,0.25
2023-02-02T00:37:05.061Z,0.30
2023-02-02T00:38:38.062Z,0.30
2023-02-02T00:40:12.788Z,0.30
2023-02-02T00:41:46.347Z,0.60
2023-02-02T00:43:19.668Z,0.40
2023-02-02T00:45:11.113Z,0.40
2023-02-02T00:46:43.656Z,0.40
2023-02-02T00:48:16.711Z,0.40
2023-02-02T00:49:49.915Z,0.50
2023-02-02T00:51:24.640Z,0.75
2023-02-02T00:52:59.042Z,0.57
2023-02-02T00:54:31.215Z,0.40
2023-02-02T00:56:05.136Z,0.63
2023-02-02T00:57:37.437Z,0.70
2023-02-02T00:59:10.860Z,0.75
2023-02-02T01:00:44.027Z,2.05
2023-02-02T01:02:17.201Z,2.05
2023-02-02T01:03:49.871Z,1.92
2023-02-02T01:05:24.182Z,1.58
2023-02-02T01:06:59.206Z,1.60
2023-02-02T01:08:32.558Z,1.77
2023-02-02T01:10:08.446Z,1.75
2023-02-02T01:11:41.396Z,1.80
2023-02-02T01:13:14.660Z,1.30
2023-02-02T01:14:49.109Z,1.30
2023-02-02T01:16:23.340Z,1.30
2023-02-02T01:17:57.281Z,1.05
2023-02-02T01:19:30.664Z,1.00
2023-02-02T01:21:07.157Z,1.30
2023-02-02T01:22:41.683Z,0.80
2023-02-02T01:24:14.852Z,0.93
2023-02-02T01:25:53.710Z,0.70
2023-02-02T01:27:27.308Z,0.50
2023-02-02T01:29:00.795Z,0.65
2023-02-02T01:30:32.905Z,0.70
2023-02-02T01:32:06.314Z,0.70
2023-02-02T01:33:39.388Z,0.85
2023-02-02T01:35:12.683Z,0.70
2023-02-02T01:36:45.913Z,0.68
2023-02-02T01:38:21.502Z,0.80
2023-02-02T01:39:54.831Z,0.57
2023-02-02T01:41:28.921Z,0.68
2023-02-02T01:43:02.078Z,0.82
2023-02-02T01:45:17.397Z,0.65
2023-02-02T01:48:30.447Z,0.82
2023-02-02T01:50:06.350Z,0.43
2023-02-02T01:51:47.526Z,0.70
2023-02-02T01:53:23.454Z,0.68
2023-02-02T01:55:01.549Z,0.70
2023-02-02T01:56:42.291Z,0.68
2023-02-02T01:58:20.782Z,0.68
2023-02-02T01:59:58.244Z,0.70
2023-02-02T02:01:31.676Z,0.70
2023-02-02T02:03:12.275Z,0.82
2023-02-02T02:04:44.970Z,0.70
2023-02-02T02:06:20.864Z,1.00
2023-02-02T02:08:01.590Z,0.80
2023-02-02T02:11:10.218Z,1.17
2023-02-02T02:12:43.741Z,1.60
2023-02-02T02:14:35.773Z,1.40
2023-02-02T02:16:20.971Z,1.20
2023-02-02T02:18:09.671Z,1.77
2023-02-02T02:20:43.151Z,2.25
2023-02-02T02:22:35.247Z,2.38
2023-02-02T02:25:12.588Z,1.85
2023-02-02T02:27:24.923Z,1.42
2023-02-02T02:29:40.703Z,1.95
2023-02-02T02:32:05.670Z,2.08
2023-02-02T02:33:49.987Z,2.13
2023-02-02T02:35:35.549Z,2.60
2023-02-02T02:37:16.404Z,2.47
2023-02-02T02:39:01.733Z,2.67
2023-02-02T02:40:41.148Z,2.42
2023-02-02T02:42:17.393Z,3.03
2023-02-02T02:43:57.259Z,3.10
2023-02-02T02:45:31.503Z,3.65
2023-02-02T02:47:05.434Z,2.88
2023-02-02T02:48:38.851Z,3.33
2023-02-02T02:50:12.277Z,3.40
2023-02-02T02:51:48.939Z,3.38
2023-02-02T02:53:30.110Z,3.50
2023-02-02T02:55:05.577Z,2.67
2023-02-02T02:56:55.739Z,3.08
2023-02-02T02:58:37.151Z,2.72
2023-02-02T03:00:32.178Z,3.00
2023-02-02T03:02:28.825Z,3.13
2023-02-02T03:04:13.982Z,3.17
2023-02-02T03:05:56.420Z,2.38
2023-02-02T03:07:39.252Z,3.17
2023-02-02T03:09:17.442Z,3.10
2023-02-02T03:10:51.058Z,2.80
2023-02-02T03:12:25.171Z,3.20
2023-02-02T03:13:58.636Z,2.92
2023-02-02T03:15:36.013Z,3.20
2023-02-02T03:17:10.512Z,2.70
2023-02-02T03:18:43.808Z,2.47
2023-02-02T03:20:18.469Z,2.70
2023-02-02T03:21:51.783Z,2.50
2023-02-02T03:23:23.989Z,2.22
2023-02-02T03:24:59.393Z,2.58
2023-02-02T03:26:32.836Z,2.30
2023-02-02T03:28:07.662Z,2.67
2023-02-02T03:29:40.856Z,2.20
2023-02-02T03:31:14.725Z,2.72
2023-02-02T03:32:50.431Z,2.45
2023-02-02T03:34:23.781Z,2.20
2023-02-02T03:35:56.958Z,1.98
2023-02-02T03:37:30.104Z,1.85
2023-02-02T03:39:03.541Z,1.50
2023-02-02T03:40:36.970Z,1.30
2023-02-02T03:42:10.134Z,1.00
2023-02-02T03:43:43.602Z,0.90
2023-02-02T03:45:17.814Z,0.93
2023-02-02T03:46:54.827Z,0.70
2023-02-02T03:48:29.415Z,1.10
2023-02-02T03:50:02.739Z,0.93
2023-02-02T03:51:35.854Z,0.80
2023-02-02T03:53:08.997Z,0.82
2023-02-02T03:54:42.239Z,1.00
2023-02-02T03:56:16.343Z,1.20
2023-02-02T03:57:48.534Z,1.10
2023-02-02T03:59:21.673Z,0.80
2023-02-02T04:00:55.707Z,1.00
2023-02-02T04:02:28.920Z,0.80
2023-02-02T04:04:03.519Z,0.98
2023-02-02T04:05:36.801Z,0.90
2023-02-02T04:07:10.123Z,1.10
2023-02-02T04:08:43.298Z,0.63
2023-02-02T04:10:16.766Z,0.68
2023-02-02T04:11:50.118Z,0.80
2023-02-02T04:13:23.458Z,0.80
2023-02-02T04:14:56.586Z,1.02
2023-02-02T04:16:34.605Z,0.80
2023-02-02T04:18:08.084Z,1.00
2023-02-02T04:19:42.502Z,0.90
2023-02-02T04:21:15.668Z,0.80
2023-02-02T04:22:48.795Z,0.95
2023-02-02T04:24:21.837Z,0.90
2023-02-02T04:25:55.663Z,0.82
2023-02-02T04:27:27.877Z,1.20
2023-02-02T04:29:01.015Z,1.20
2023-02-02T04:30:34.128Z,1.77
2023-02-02T04:32:06.353Z,1.40
2023-02-02T04:33:39.513Z,1.60
2023-02-02T04:35:14.102Z,1.80
2023-02-02T04:36:47.513Z,2.22
2023-02-02T04:38:20.189Z,2.13
2023-02-02T04:39:55.237Z,2.50
2023-02-02T04:41:28.722Z,2.90
2023-02-02T04:43:02.084Z,3.38
2023-02-02T04:44:35.916Z,3.55
2023-02-02T04:46:09.147Z,3.63
2023-02-02T04:47:42.550Z,4.82
2023-02-02T04:49:15.837Z,3.78
2023-02-02T04:50:50.266Z,3.92
2023-02-02T04:52:23.527Z,4.35
2023-02-02T04:53:56.873Z,4.45
2023-02-02T04:55:30.146Z,4.53
2023-02-02T04:57:03.270Z,4.88
2023-02-02T04:58:36.537Z,4.80
2023-02-02T05:00:12.434Z,4.80
2023-02-02T05:01:45.533Z,4.82
2023-02-02T05:03:17.761Z,4.75
2023-02-02T05:04:50.994Z,4.65
2023-02-02T05:06:26.026Z,5.65
2023-02-02T05:07:59.920Z,5.13
2023-02-02T05:09:33.213Z,5.40
2023-02-02T05:11:10.152Z,4.90
2023-02-02T05:12:42.491Z,5.00
2023-02-02T05:14:18.331Z,4.93
2023-02-02T05:15:51.463Z,5.05
2023-02-02T05:17:24.623Z,4.95
2023-02-02T05:18:59.529Z,5.68
2023-02-02T05:22:07.239Z,5.00
2023-02-02T05:23:40.510Z,4.45
2023-02-02T05:25:13.923Z,4.55
2023-02-02T05:26:47.551Z,4.57
2023-02-02T05:28:21.307Z,4.80
2023-02-02T05:29:54.441Z,4.00
2023-02-02T05:31:27.673Z,4.85
2023-02-02T05:33:00.883Z,4.78
2023-02-02T05:34:34.057Z,4.22
2023-02-02T05:36:08.351Z,4.13
2023-02-02T05:37:44.374Z,4.10
2023-02-02T05:39:17.540Z,4.20
2023-02-02T05:40:50.792Z,4.00
2023-02-02T05:42:23.986Z,4.35
2023-02-02T05:43:57.276Z,4.47
2023-02-02T05:45:30.700Z,3.95
2023-02-02T05:47:03.806Z,4.78
2023-02-02T05:48:37.085Z,5.00
2023-02-02T05:50:11.633Z,5.20
2023-02-02T05:51:48.495Z,5.47
2023-02-02T05:53:23.072Z,5.22
2023-02-02T05:54:56.202Z,5.45
2023-02-02T05:56:29.378Z,4.75
2023-02-02T05:58:02.576Z,5.40
2023-02-02T05:59:35.753Z,5.75
2023-02-02T06:01:09.709Z,5.57
2023-02-02T06:02:42.929Z,5.18
2023-02-02T06:04:17.174Z,5.47
2023-02-02T06:05:50.745Z,5.55
2023-02-02T06:07:24.128Z,6.28
2023-02-02T06:08:58.822Z,4.90
2023-02-02T06:10:32.195Z,5.15
2023-02-02T06:12:06.455Z,4.55
2023-02-02T06:13:39.948Z,4.60
2023-02-02T06:15:15.686Z,4.90
2023-02-02T06:16:48.825Z,4.53
2023-02-02T06:18:21.952Z,4.72
2023-02-02T06:19:55.079Z,4.53
2023-02-02T06:21:31.018Z,4.75
2023-02-02T06:23:05.212Z,5.25
2023-02-02T06:24:39.875Z,4.50
2023-02-02T06:26:13.233Z,4.43
2023-02-02T06:27:46.546Z,4.93
2023-02-02T06:29:20.179Z,5.05
2023-02-02T06:30:53.671Z,4.80
2023-02-02T06:32:26.933Z,5.10
2023-02-02T06:34:00.867Z,4.13
2023-02-02T06:35:34.834Z,4.65
2023-02-02T06:37:08.352Z,4.68
2023-02-02T06:38:42.501Z,4.57
2023-02-02T06:40:17.634Z,4.60
2023-02-02T06:41:51.966Z,4.38
2023-02-02T06:43:25.156Z,4.88
2023-02-02T06:44:58.309Z,4.88
2023-02-02T06:46:31.843Z,4.53
2023-02-02T06:48:10.734Z,4.20
2023-02-02T06:49:43.915Z,4.80
2023-02-02T06:51:17.161Z,4.13
2023-02-02T06:52:50.682Z,4.70
2023-02-02T06:54:23.822Z,5.13
2023-02-02T06:56:01.427Z,4.95
2023-02-02T06:57:34.928Z,4.57
2023-02-02T06:59:08.513Z,4.85
2023-02-02T07:00:41.970Z,4.82
2023-02-02T07:02:15.306Z,4.25
2023-02-02T07:03:51.027Z,4.18
2023-02-02T07:05:25.584Z,4.20
2023-02-02T07:08:32.179Z,3.83
2023-02-02T07:10:05.816Z,5.13
2023-02-02T07:11:41.992Z,4.70
2023-02-02T07:13:17.211Z,4.63
2023-02-02T07:14:50.406Z,5.07
2023-02-02T07:16:23.764Z,4.85
2023-02-02T07:17:56.870Z,4.90
2023-02-02T07:19:30.411Z,4.30
2023-02-02T07:21:05.570Z,4.75
2023-02-02T07:22:39.903Z,4.28
2023-02-02T07:24:13.447Z,3.97
2023-02-02T07:25:46.572Z,4.57
2023-02-02T07:27:21.262Z,4.15
2023-02-02T07:28:54.459Z,4.32
2023-02-02T07:30:29.679Z,3.90
2023-02-02T07:32:02.977Z,3.83
2023-02-02T07:33:40.015Z,4.53
2023-02-02T07:35:13.114Z,4.50
2023-02-02T07:36:46.512Z,4.18
2023-02-02T07:38:20.431Z,4.63
2023-02-02T07:39:53.681Z,4.00
2023-02-02T07:41:27.873Z,4.50
2023-02-02T07:43:02.601Z,4.32
2023-02-02T07:44:35.900Z,4.05
2023-02-02T07:46:14.183Z,4.93
2023-02-02T07:47:47.433Z,4.28
2023-02-02T07:49:20.917Z,4.72
2023-02-02T07:50:54.051Z,4.57
2023-02-02T07:52:27.255Z,5.47
2023-02-02T07:54:00.419Z,4.57
2023-02-02T07:55:33.748Z,5.20
2023-02-02T07:57:07.414Z,5.32
2023-02-02T07:58:43.063Z,5.85
2023-02-02T08:00:17.286Z,5.32
2023-02-02T08:01:51.569Z,5.35
2023-02-02T08:03:25.071Z,5.07
2023-02-02T08:04:58.218Z,5.05
2023-02-02T08:06:34.848Z,4.68
2023-02-02T08:08:08.214Z,5.65
2023-02-02T08:09:47.202Z,4.47
2023-02-02T08:11:22.996Z,5.28
2023-02-02T08:12:56.259Z,4.97
2023-02-02T08:14:30.805Z,4.70
2023-02-02T08:16:04.210Z,5.38
2023-02-02T08:17:37.886Z,4.90
2023-02-02T08:19:12.121Z,4.32
2023-02-02T08:20:45.278Z,5.28
2023-02-02T08:22:20.337Z,4.63
2023-02-02T08:23:54.803Z,5.55
2023-02-02T08:25:29.695Z,4.97
2023-02-02T08:27:02.850Z,4.88
2023-02-02T08:28:36.538Z,4.97
2023-02-02T08:30:13.601Z,5.20
2023-02-02T08:31:47.077Z,6.70
2023-02-02T08:33:20.460Z,6.00
2023-02-02T08:34:53.929Z,5.63
2023-02-02T08:36:30.176Z,5.53
2023-02-02T08:38:05.281Z,5.60
2023-02-02T08:39:38.751Z,4.28
2023-02-02T08:41:16.548Z,4.80
2023-02-02T08:42:55.840Z,3.83
2023-02-02T08:45:00.730Z,4.60
2023-02-02T08:46:27.634Z,4.38
2023-02-02T08:48:11.243Z,4.22
2023-02-02T08:49:45.531Z,4.65
2023-02-02T08:51:21.152Z,3.80
2023-02-02T08:52:54.587Z,4.35
2023-02-02T08:54:27.907Z,3.92
2023-02-02T08:56:02.849Z,3.50
2023-02-02T08:59:09.208Z,3.45
2023-02-02T09:00:42.631Z,3.80
2023-02-02T09:02:18.578Z,3.83
2023-02-02T09:03:55.876Z,3.83
2023-02-02T09:05:29.137Z,3.95
2023-02-02T09:07:03.183Z,3.65
2023-02-02T09:08:36.697Z,3.10
2023-02-02T09:10:11.390Z,3.95
2023-02-02T09:11:45.245Z,3.13
2023-02-02T09:13:18.330Z,3.03
2023-02-02T09:14:51.921Z,2.53
2023-02-02T09:16:27.137Z,3.30
2023-02-02T09:18:01.658Z,3.28
2023-02-02T09:19:35.131Z,3.22
2023-02-02T09:21:11.714Z,3.60
2023-02-02T09:22:44.888Z,3.80
2023-02-02T09:24:18.121Z,3.42
2023-02-02T09:25:51.235Z,3.72
2023-02-02T09:27:24.396Z,3.55
2023-02-02T09:29:01.680Z,4.65
2023-02-02T09:30:34.942Z,5.55
2023-02-02T09:32:08.397Z,4.25
2023-02-02T09:33:43.981Z,3.42
2023-02-02T09:35:18.080Z,3.08
2023-02-02T09:36:51.946Z,2.97
2023-02-02T09:38:25.239Z,3.20
2023-02-02T09:39:58.440Z,2.97
2023-02-02T09:42:18.921Z,2.83
2023-02-02T09:44:05.381Z,2.85
2023-02-02T09:45:50.740Z,2.05
2023-02-02T09:47:28.242Z,2.83
2023-02-02T09:49:08.614Z,3.22
2023-02-02T09:50:48.497Z,3.00
2023-02-02T09:52:28.599Z,2.45
2023-02-02T09:54:11.243Z,2.40
2023-02-02T09:55:48.913Z,2.75
2023-02-02T09:57:28.562Z,2.75
2023-02-02T09:59:19.374Z,2.75
2023-02-02T10:01:02.390Z,2.95
2023-02-02T10:02:46.304Z,2.72
2023-02-02T10:04:27.043Z,2.42
2023-02-02T10:06:08.165Z,2.80
2023-02-02T10:07:46.826Z,3.10
2023-02-02T10:09:39.292Z,2.83
2023-02-02T10:11:33.895Z,2.30
2023-02-02T10:13:12.883Z,2.80
2023-02-02T10:14:55.390Z,2.70
2023-02-02T10:16:29.919Z,2.60
2023-02-02T10:18:13.327Z,2.97
2023-02-02T10:19:54.071Z,2.53
2023-02-02T10:21:40.272Z,2.70
2023-02-02T10:23:28.398Z,2.25
2023-02-02T10:25:01.869Z,2.45
2023-02-02T10:26:40.884Z,3.05
2023-02-02T10:28:20.844Z,2.70
2023-02-02T10:30:01.643Z,2.85
2023-02-02T10:31:44.774Z,2.50
2023-02-02T10:33:29.183Z,2.15
2023-02-02T10:35:28.513Z,2.72
2023-02-02T10:37:30.483Z,2.50
2023-02-02T10:39:20.563Z,1.98
2023-02-02T10:41:07.180Z,2.08
2023-02-02T10:43:10.918Z,2.00
2023-02-02T10:46:27.698Z,1.90
2023-02-02T10:48:01.535Z,1.98
2023-02-02T10:49:37.923Z,2.78
2023-02-02T10:51:22.182Z,2.60
2023-02-02T10:53:01.118Z,2.72
2023-02-02T10:54:57.166Z,2.75
2023-02-02T10:56:38.791Z,2.78
2023-02-02T10:58:27.350Z,3.13
2023-02-02T11:00:11.866Z,3.42
2023-02-02T11:01:45.708Z,3.67
2023-02-02T11:03:25.039Z,3.78
2023-02-02T11:05:16.200Z,3.58
2023-02-02T11:06:50.177Z,3.80
2023-02-02T11:08:30.976Z,4.25
2023-02-02T11:10:04.373Z,4.65
2023-02-02T11:11:42.703Z,5.18
2023-02-02T11:13:27.932Z,5.28
2023-02-02T11:15:05.405Z,4.78
2023-02-02T11:16:43.728Z,5.60
2023-02-02T11:18:30.968Z,5.75
2023-02-02T11:20:26.592Z,6.15
2023-02-02T11:22:06.008Z,6.00
2023-02-02T11:23:40.104Z,5.93
2023-02-02T11:25:29.205Z,6.25
2023-02-02T11:27:07.980Z,6.25
2023-02-02T11:28:42.215Z,5.97
2023-02-02T11:30:28.970Z,6.05
2023-02-02T11:32:26.627Z,5.88
2023-02-02T11:34:20.745Z,5.95
2023-02-02T11:35:57.792Z,6.50
2023-02-02T11:37:34.512Z,6.22
2023-02-02T11:39:22.361Z,6.38
2023-02-02T11:41:02.412Z,6.95
2023-02-02T11:42:35.636Z,7.40
2023-02-02T11:44:24.782Z,6.45
2023-02-02T11:46:03.855Z,7.18
2023-02-02T11:47:37.341Z,6.93
2023-02-02T11:49:18.965Z,7.55
2023-02-02T11:50:55.951Z,6.32
2023-02-02T11:52:34.081Z,6.63
2023-02-02T11:54:17.905Z,6.80
2023-02-02T11:55:52.372Z,7.35
2023-02-02T11:57:29.142Z,6.18
2023-02-02T11:59:03.926Z,6.43
2023-02-02T12:00:49.334Z,7.22
2023-02-02T12:02:32.093Z,7.22
2023-02-02T12:04:26.252Z,8.68
2023-02-02T12:06:02.072Z,7.93
2023-02-02T12:07:37.706Z,8.77
2023-02-02T12:09:15.532Z,8.05
2023-02-02T12:10:59.787Z,8.20
2023-02-02T12:12:53.474Z,9.00
2023-02-02T12:14:50.994Z,8.80
2023-02-02T12:16:45.598Z,8.63
2023-02-02T12:18:39.773Z,7.95
2023-02-02T12:20:31.111Z,8.70
2023-02-02T12:22:21.535Z,8.57
2023-02-02T12:24:18.431Z,8.48
2023-02-02T12:26:12.272Z,8.25
2023-02-02T12:27:58.308Z,8.43
2023-02-02T12:29:49.138Z,7.97
2023-02-02T12:31:34.363Z,9.10
2023-02-02T12:33:25.023Z,8.13
2023-02-02T12:35:21.782Z,8.32
2023-02-02T12:37:08.647Z,7.85
2023-02-02T12:39:05.880Z,7.82
2023-02-02T12:41:12.592Z,8.25
2023-02-02T12:43:03.882Z,7.75
2023-02-02T12:44:54.136Z,7.95
2023-02-02T12:46:47.457Z,8.73
2023-02-02T12:48:39.132Z,8.25
2023-02-02T12:50:31.116Z,8.30
2023-02-02T12:52:20.962Z,7.35
2023-02-02T12:54:33.671Z,7.95
2023-02-02T12:56:23.736Z,7.40
2023-02-02T12:58:11.573Z,8.40
2023-02-02T13:00:32.355Z,8.48
2023-02-02T13:02:19.033Z,6.53
2023-02-02T13:04:17.575Z,6.97
2023-02-02T13:06:18.349Z,6.47
2023-02-02T13:07:59.396Z,6.25
2023-02-02T13:09:42.164Z,6.72
2023-02-02T13:11:32.981Z,7.10
2023-02-02T13:13:13.221Z,5.95
2023-02-02T13:14:51.162Z,6.55
2023-02-02T13:16:25.578Z,7.43
2023-02-02T13:18:02.958Z,5.78
2023-02-02T13:19:41.443Z,5.30
2023-02-02T13:21:20.350Z,5.22
2023-02-02T13:23:00.115Z,4.72
2023-02-02T13:24:39.916Z,5.35
2023-02-02T13:26:20.042Z,4.60
2023-02-02T13:27:54.998Z,3.80
2023-02-02T13:31:23.777Z,3.90
2023-02-02T13:33:03.600Z,5.03
2023-02-02T13:34:45.666Z,5.15
2023-02-02T13:36:29.422Z,6.68
2023-02-02T13:38:14.720Z,5.05
2023-02-02T13:39:59.347Z,4.00
2023-02-02T13:41:33.277Z,3.30
2023-02-02T13:43:23.254Z,3.22
2023-02-02T13:45:08.195Z,18.58
2023-02-02T13:46:49.495Z,9.95
2023-02-02T13:48:35.458Z,8.32
2023-02-02T13:50:17.927Z,8.27
2023-02-02T13:52:09.754Z,10.75
2023-02-02T13:54:11.336Z,11.75
2023-02-02T13:56:18.188Z,9.57
2023-02-02T13:58:30.962Z,6.28
2023-02-02T14:00:18.302Z,5.70
2023-02-02T14:01:52.733Z,8.15
2023-02-02T14:03:38.641Z,7.70
2023-02-02T14:05:26.420Z,7.90
2023-02-02T14:08:38.201Z,4.63
2023-02-02T14:10:26.451Z,8.30
2023-02-02T14:12:06.768Z,5.18
2023-02-02T14:14:04.918Z,4.18
2023-02-02T14:15:40.825Z,3.83
2023-02-02T14:17:51.014Z,4.45
2023-02-02T14:19:52.615Z,3.17
2023-02-02T14:22:03.834Z,3.63
2023-02-02T14:23:55.442Z,2.72
2023-02-02T14:26:06.319Z,3.22
2023-02-02T14:27:58.558Z,2.70
2023-02-02T14:29:59.697Z,2.67
2023-02-02T14:31:54.275Z,2.50
2023-02-02T14:33:47.301Z,5.05
2023-02-02T14:35:58.102Z,3.20
2023-02-02T14:37:50.405Z,2.85
2023-02-02T14:39:30.073Z,2.88
2023-02-02T14:41:35.721Z,3.35
2023-02-02T14:43:46.341Z,2.85
2023-02-02T14:45:32.341Z,3.03
2023-02-02T14:47:43.208Z,2.85
2023-02-02T14:49:23.995Z,2.97
2023-02-02T14:50:59.935Z,2.75
2023-02-02T14:52:34.415Z,3.25
2023-02-02T14:54:09.196Z,3.10
2023-02-02T14:55:56.865Z,3.53
2023-02-02T14:57:32.491Z,3.15
2023-02-02T14:59:18.543Z,3.15
2023-02-02T15:01:00.736Z,2.88
2023-02-02T15:02:37.016Z,2.90
2023-02-02T15:04:27.889Z,5.20
2023-02-02T15:06:09.409Z,3.20
2023-02-02T15:07:55.036Z,3.72
2023-02-02T15:09:39.635Z,3.63
2023-02-02T15:11:32.188Z,3.35
2023-02-02T15:13:12.047Z,3.10
2023-02-02T15:14:52.397Z,3.30
2023-02-02T15:16:31.949Z,3.47
2023-02-02T15:18:19.351Z,3.22
2023-02-02T15:20:03.428Z,2.97
2023-02-02T15:21:41.533Z,3.10
2023-02-02T15:23:30.067Z,3.40
2023-02-02T15:25:18.342Z,4.05
2023-02-02T15:26:54.747Z,3.53
2023-02-02T15:28:41.905Z,3.55
2023-02-02T15:30:18.523Z,3.95
2023-02-02T15:31:55.137Z,4.30
2023-02-02T15:33:35.170Z,4.57
2023-02-02T15:35:18.799Z,4.60
2023-02-02T15:36:56.353Z,4.03
2023-02-02T15:38:37.314Z,4.65
2023-02-02T15:40:22.232Z,4.78
2023-02-02T15:42:11.877Z,5.20
2023-02-02T15:43:45.760Z,5.18
2023-02-02T15:45:39.746Z,5.03
2023-02-02T15:47:17.850Z,4.32
2023-02-02T15:49:32.722Z,4.57
2023-02-02T15:51:20.212Z,5.20
2023-02-02T15:52:55.537Z,4.22
2023-02-02T15:54:31.784Z,4.53
2023-02-02T15:56:21.535Z,4.68
2023-02-02T15:57:55.161Z,4.68
2023-02-02T15:59:31.962Z,4.82
2023-02-02T16:01:16.667Z,5.47
2023-02-02T16:02:56.283Z,5.35
2023-02-02T16:04:36.048Z,5.68
2023-02-02T16:06:10.471Z,5.45
2023-02-02T16:07:46.661Z,4.82
2023-02-02T16:09:28.684Z,4.50
2023-02-02T16:11:10.326Z,4.72
2023-02-02T16:12:44.031Z,5.05
2023-02-02T16:14:18.568Z,5.10
2023-02-02T16:15:59.116Z,5.22
2023-02-02T16:17:35.856Z,4.80
2023-02-02T16:19:17.479Z,5.13
2023-02-02T16:20:53.329Z,4.72
2023-02-02T16:22:27.828Z,5.47
2023-02-02T16:24:04.966Z,5.30
2023-02-02T16:25:52.451Z,5.20
2023-02-02T16:27:30.065Z,5.55
2023-02-02T16:29:03.624Z,5.45
2023-02-02T16:30:40.265Z,5.35
2023-02-02T16:32:30.335Z,5.68
2023-02-02T16:34:05.025Z,4.90
2023-02-02T16:35:40.868Z,5.60
2023-02-02T16:37:17.999Z,5.72
2023-02-02T16:38:52.425Z,5.53
2023-02-02T16:40:29.951Z,5.68
2023-02-02T16:42:11.580Z,5.82
2023-02-02T16:43:44.896Z,6.00
2023-02-02T16:45:35.987Z,5.53
2023-02-02T16:47:32.930Z,4.88
2023-02-02T16:49:18.990Z,5.25
2023-02-02T16:51:10.154Z,4.45
2023-02-02T16:52:52.575Z,4.80
2023-02-02T16:54:26.130Z,4.93
2023-02-02T16:55:59.527Z,4.80
2023-02-02T16:57:34.776Z,4.93
2023-02-02T16:59:20.310Z,4.65
2023-02-02T17:01:14.858Z,4.22
2023-02-02T17:02:57.573Z,3.88
2023-02-02T17:04:35.301Z,4.32
2023-02-02T17:06:09.269Z,3.80
2023-02-02T17:07:50.758Z,4.15
2023-02-02T17:09:36.371Z,3.65
2023-02-02T17:11:24.573Z,3.70
2023-02-02T17:12:59.797Z,3.50
2023-02-02T17:14:38.034Z,3.00
2023-02-02T17:16:18.923Z,3.38
2023-02-02T17:17:53.470Z,5.13
2023-02-02T17:19:32.076Z,2.78
2023-02-02T17:21:07.656Z,3.20
2023-02-02T17:22:44.110Z,2.92
2023-02-02T17:24:17.681Z,2.75
2023-02-02T17:25:51.079Z,3.13
2023-02-02T17:27:31.685Z,3.65
2023-02-02T17:29:06.809Z,4.05
2023-02-02T17:30:41.977Z,3.42
2023-02-02T17:32:15.460Z,3.10
2023-02-02T17:33:48.789Z,3.63
2023-02-02T17:35:26.155Z,3.28
2023-02-02T17:37:00.107Z,3.08
2023-02-02T17:38:34.107Z,4.22
2023-02-02T17:40:10.171Z,3.25
2023-02-02T17:41:46.996Z,3.70
2023-02-02T17:43:20.183Z,3.42
2023-02-02T17:44:53.328Z,3.42
2023-02-02T17:46:28.290Z,3.67
2023-02-02T17:48:01.955Z,4.03
2023-02-02T17:49:35.374Z,4.32
2023-02-02T17:51:16.742Z,3.67
2023-02-02T17:52:51.858Z,3.25
2023-02-02T17:54:24.963Z,3.75
2023-02-02T17:55:58.223Z,5.10
2023-02-02T17:57:31.413Z,4.82
2023-02-02T17:59:04.640Z,4.03
2023-02-02T18:00:41.899Z,3.58
2023-02-02T18:02:17.468Z,4.05
2023-02-02T18:03:50.844Z,3.15
2023-02-02T18:05:24.267Z,2.92
2023-02-02T18:06:58.955Z,3.42
2023-02-02T18:08:34.501Z,2.72
2023-02-02T18:10:10.280Z,3.85
2023-02-02T18:11:45.422Z,3.45
2023-02-02T18:13:22.197Z,3.40
2023-02-02T18:14:55.293Z,2.78
2023-02-02T18:16:28.446Z,2.80
2023-02-02T18:18:01.913Z,2.60
2023-02-02T18:19:35.091Z,2.63
2023-02-02T18:21:13.949Z,2.72
2023-02-02T18:22:48.603Z,2.30
2023-02-02T18:24:21.863Z,2.45
2023-02-02T18:25:55.017Z,2.22
2023-02-02T18:27:30.877Z,2.70
2023-02-02T18:29:04.126Z,2.33
2023-02-02T18:30:39.718Z,2.50
2023-02-02T18:32:12.942Z,2.92
2023-02-02T18:33:47.171Z,3.08
2023-02-02T18:35:20.363Z,3.05
2023-02-02T18:36:52.511Z,2.58
2023-02-02T18:38:27.296Z,2.25
2023-02-02T18:40:01.208Z,2.05
2023-02-02T18:41:34.453Z,2.20
2023-02-02T18:43:07.681Z,2.42
2023-02-02T18:44:41.127Z,3.17
2023-02-02T18:46:17.224Z,2.95
2023-02-02T18:47:50.474Z,3.40
2023-02-02T18:49:24.597Z,3.58
2023-02-02T18:50:57.723Z,2.72
2023-02-02T18:52:33.941Z,3.00
2023-02-02T18:54:10.424Z,2.50
2023-02-02T18:55:43.807Z,2.90
2023-02-02T18:57:17.640Z,2.03
2023-02-02T18:58:51.396Z,1.80
2023-02-02T19:00:25.082Z,2.25
2023-02-02T19:01:58.582Z,2.40
2023-02-02T19:03:31.937Z,2.13
2023-02-02T19:05:22.782Z,2.33
2023-02-02T19:07:13.478Z,1.80
2023-02-02T19:08:46.654Z,2.05
2023-02-02T19:10:21.691Z,2.08
2023-02-02T19:11:55.434Z,1.73
2023-02-02T19:13:30.575Z,1.55
2023-02-02T19:15:11.458Z,1.60
2023-02-02T19:16:47.940Z,1.65
2023-02-02T19:18:23.782Z,1.75
2023-02-02T19:20:08.365Z,1.50
2023-02-02T19:21:42.083Z,1.52
2023-02-02T19:23:18.681Z,1.50
2023-02-02T19:24:52.848Z,1.65
2023-02-02T19:26:29.546Z,1.70
2023-02-02T19:28:14.477Z,1.63
2023-02-02T19:29:50.645Z,1.98
2023-02-02T19:31:24.178Z,1.75
2023-02-02T19:32:57.362Z,1.60
2023-02-02T19:34:34.609Z,1.70
2023-02-02T19:36:15.984Z,1.85
2023-02-02T19:37:53.618Z,2.63
2023-02-02T19:39:31.767Z,2.78
2023-02-02T19:41:19.916Z,2.50
2023-02-02T19:43:01.111Z,3.50
2023-02-02T19:44:35.871Z,2.88
2023-02-02T19:46:22.529Z,3.03
2023-02-02T19:47:58.678Z,3.22
2023-02-02T19:49:38.157Z,2.70
2023-02-02T19:51:41.679Z,2.78
2023-02-02T19:53:23.096Z,2.92
2023-02-02T19:54:57.917Z,6.57
2023-02-02T19:56:39.461Z,6.30
2023-02-02T19:58:20.343Z,5.47
2023-02-02T19:59:55.862Z,6.15
2023-02-02T20:01:34.713Z,5.57
2023-02-02T20:03:13.581Z,5.53
2023-02-02T20:04:47.078Z,6.40
2023-02-02T20:06:26.605Z,5.95
2023-02-02T20:08:06.708Z,6.45
2023-02-02T20:09:43.805Z,6.53
2023-02-02T20:11:32.073Z,7.28
2023-02-02T20:13:18.914Z,7.57
2023-02-02T20:14:52.201Z,8.02
2023-02-02T20:16:42.812Z,8.70
2023-02-02T20:18:21.095Z,8.73
2023-02-02T20:19:54.356Z,9.50
2023-02-02T20:21:37.348Z,10.55
2023-02-02T20:23:40.379Z,10.68
2023-02-02T20:25:17.559Z,7.90
2023-02-02T20:26:52.899Z,12.57
2023-02-02T20:28:43.150Z,10.52
2023-02-02T20:30:22.885Z,11.18
2023-02-02T20:31:59.688Z,10.20
2023-02-02T20:33:33.773Z,10.05
2023-02-02T20:35:27.877Z,10.40
2023-02-02T20:37:06.765Z,9.40
2023-02-02T20:38:40.156Z,9.60
2023-02-02T20:40:26.985Z,8.88
2023-02-02T20:42:00.604Z,9.15
2023-02-02T20:43:35.866Z,8.95
2023-02-02T20:45:09.586Z,9.52
2023-02-02T20:46:42.872Z,9.88
2023-02-02T20:48:16.431Z,9.85
2023-02-02T20:49:50.266Z,9.27
2023-02-02T20:51:23.447Z,10.23
2023-02-02T20:52:59.334Z,9.55
2023-02-02T20:54:33.943Z,9.57
2023-02-02T20:56:07.641Z,10.13
2023-02-02T20:57:41.144Z,9.82
2023-02-02T20:59:16.604Z,9.50
2023-02-02T21:00:49.823Z,10.02
2023-02-02T21:02:23.103Z,8.48
2023-02-02T21:03:57.063Z,10.50
2023-02-02T21:05:30.484Z,10.07
2023-02-02T21:07:03.777Z,10.32
2023-02-02T21:08:37.320Z,11.10
2023-02-02T21:10:11.466Z,10.70
2023-02-02T21:11:45.597Z,9.88
2023-02-02T21:13:18.811Z,10.43
2023-02-02T21:14:53.856Z,10.48
2023-02-02T21:16:27.430Z,11.38
2023-02-02T21:18:00.616Z,11.23
2023-02-02T21:19:34.074Z,10.68
2023-02-02T21:21:07.208Z,10.07
2023-02-02T21:22:40.356Z,9.50
2023-02-02T21:24:13.405Z,9.90
2023-02-02T21:25:46.612Z,9.90
2023-02-02T21:27:19.776Z,10.70
2023-02-02T21:28:53.058Z,10.63
2023-02-02T21:30:28.096Z,8.88
2023-02-02T21:32:02.664Z,9.07
2023-02-02T21:33:36.842Z,9.25
2023-02-02T21:35:12.114Z,8.52
2023-02-02T21:36:48.465Z,8.25
2023-02-02T21:38:21.574Z,7.30
2023-02-02T21:40:00.311Z,6.70
2023-02-02T21:41:34.945Z,7.30
2023-02-02T21:43:16.991Z,7.00
2023-02-02T21:44:56.143Z,6.75
2023-02-02T21:46:38.181Z,6.75
2023-02-02T21:48:28.560Z,7.88
2023-02-02T21:50:15.192Z,7.45
2023-02-02T21:51:48.560Z,7.70
2023-02-02T21:53:25.388Z,7.28
2023-02-02T21:54:58.672Z,7.18
2023-02-02T21:56:40.371Z,6.88
2023-02-02T21:58:24.742Z,7.57
2023-02-02T21:59:58.320Z,6.57
2023-02-02T22:01:39.518Z,7.15
2023-02-02T22:03:34.305Z,7.20
2023-02-02T22:05:28.681Z,6.43
2023-02-02T22:07:13.971Z,6.68
2023-02-02T22:08:48.474Z,6.85
2023-02-02T22:10:37.593Z,6.97